Time;durP1;ratioP1;P1;durP2;ratioP2;P2;SDS_P1;SDS_P2;PMS_P1;PMS_P2;Temp;Humidity;BMP_temperature;BMP_pressure;BME280_temperature;BME280_humidity;BME280_pressure;Samples;Min_cycle;Max_cycle;Signal;HPM_P1;HPM_P2
2022/12/02 00:00:50;;;;;;;70.30;21.90;;;;;;;1.48;100.00;101924.34;5102144;28;20204;-82
2022/12/02 00:03:21;;;;;;;77.30;24.63;;;;;;;1.50;100.00;101926.94;5095807;28;20261;-84
2022/12/02 00:05:49;;;;;;;71.70;24.77;;;;;;;1.48;100.00;101923.47;5095243;28;20222;-81
2022/12/02 00:08:19;;;;;;;72.67;25.30;;;;;;;1.48;100.00;101926.09;5095471;28;20196;-82
2022/12/02 00:10:47;;;;;;;73.47;25.67;;;;;;;1.47;100.00;101919.09;5098682;28;20205;-83
2022/12/02 00:13:20;;;;;;;77.97;25.27;;;;;;;1.48;100.00;101918.22;5102683;28;20206;-83
2022/12/02 00:15:56;;;;;;;75.40;25.43;;;;;;;1.48;100.00;101913.84;5099205;28;20231;-85
2022/12/02 00:18:24;;;;;;;73.03;25.40;;;;;;;1.46;100.00;101909.47;5101075;28;20225;-83
2022/12/02 00:20:51;;;;;;;82.03;26.17;;;;;;;1.46;100.00;101904.22;5097596;28;20311;-82
2022/12/02 00:23:17;;;;;;;77.13;27.00;;;;;;;1.45;100.00;101903.34;5092798;28;20208;-83
2022/12/02 00:25:48;;;;;;;83.23;26.17;;;;;;;1.45;100.00;101900.72;5090656;28;20220;-84
2022/12/02 00:28:15;;;;;;;79.17;25.63;;;;;;;1.43;100.00;101902.50;5087661;28;20193;-81
2022/12/02 00:30:42;;;;;;;76.77;25.53;;;;;;;1.42;100.00;101892.03;5089391;28;20720;-83
2022/12/02 00:33:09;;;;;;;79.93;27.17;;;;;;;1.39;100.00;101899.03;5091996;28;20299;-83
2022/12/02 00:35:39;;;;;;;74.27;25.00;;;;;;;1.39;100.00;101899.03;5086190;28;20220;-82
2022/12/02 00:38:06;;;;;;;78.77;26.20;;;;;;;1.38;100.00;101897.28;5092949;28;20235;-82
2022/12/02 00:40:33;;;;;;;82.53;28.73;;;;;;;1.38;100.00;101897.28;5085634;28;20200;-80
2022/12/02 00:46:30;;;;;;;75.30;25.80;;;;;;;1.37;100.00;101898.16;5087297;28;20617;-82
2022/12/02 00:48:36;;;;;;;78.70;26.40;;;;;;;1.35;100.00;101892.03;5087402;28;20226;-84
2022/12/02 00:51:05;;;;;;;82.10;25.90;;;;;;;1.34;100.00;101897.28;5086705;28;20584;-84
2022/12/02 00:53:34;;;;;;;78.30;26.37;;;;;;;1.32;100.00;101894.69;5084077;28;20209;-84
2022/12/02 00:56:01;;;;;;;73.27;24.07;;;;;;;1.30;100.00;101891.19;5087943;28;20604;-81
2022/12/02 00:58:27;;;;;;;73.33;23.40;;;;;;;1.29;100.00;101896.44;5090932;28;20223;-83
2022/12/02 01:00:54;;;;;;;82.50;26.00;;;;;;;1.28;100.00;101890.31;5081555;28;20213;-83
2022/12/02 01:03:20;;;;;;;72.33;24.37;;;;;;;1.27;100.00;101895.56;5088214;28;20201;-83
2022/12/02 01:05:47;;;;;;;80.50;25.17;;;;;;;1.26;100.00;101894.69;5081621;28;20755;-81
2022/12/02 01:08:15;;;;;;;85.27;27.67;;;;;;;1.26;100.00;101881.56;5083922;28;20215;-84
2022/12/02 01:10:41;;;;;;;83.37;27.13;;;;;;;1.27;100.00;101899.06;5087040;28;20854;-82
2022/12/02 01:13:08;;;;;;;74.40;25.97;;;;;;;1.27;100.00;101901.69;5087801;28;20760;-84
2022/12/02 01:15:34;;;;;;;66.60;24.00;;;;;;;1.25;100.00;101898.25;5087750;28;20227;-80
2022/12/02 01:18:01;;;;;;;72.23;24.67;;;;;;;1.24;100.00;101903.50;5084784;28;20239;-84
2022/12/02 01:20:27;;;;;;;75.20;26.93;;;;;;;1.21;100.00;101904.38;5082831;28;20201;-82
2022/12/02 01:22:54;;;;;;;84.40;26.53;;;;;;;1.19;100.00;101900.00;5084204;28;20219;-82
2022/12/02 01:25:22;;;;;;;83.50;26.93;;;;;;;1.17;100.00;101894.75;5088536;28;20232;-81
2022/12/02 01:27:48;;;;;;;78.30;25.23;;;;;;;1.17;100.00;101896.50;5083104;28;20726;-80
2022/12/02 01:30:15;;;;;;;83.90;25.27;;;;;;;1.17;100.00;101896.50;5086628;28;20209;-82
2022/12/02 01:32:42;;;;;;;83.47;26.67;;;;;;;1.15;100.00;101898.28;5086337;28;20587;-83
2022/12/02 01:35:09;;;;;;;95.10;27.90;;;;;;;1.15;100.00;101901.78;5082682;28;21446;-80
2022/12/02 01:37:35;;;;;;;95.67;28.07;;;;;;;1.14;100.00;101896.53;5083381;28;20232;-83
2022/12/02 01:40:02;;;;;;;89.63;28.13;;;;;;;1.15;100.00;101903.53;5085183;28;20212;-82
2022/12/02 01:42:30;;;;;;;92.97;28.30;;;;;;;1.15;100.00;101893.91;5085467;28;20263;-82
2022/12/02 01:44:56;;;;;;;92.33;28.77;;;;;;;1.15;100.00;101891.28;5084519;28;20224;-84
2022/12/02 01:47:23;;;;;;;96.43;29.80;;;;;;;1.16;100.00;101893.03;5079939;28;20204;-84
2022/12/02 01:49:49;;;;;;;103.00;31.13;;;;;;;1.15;100.00;101882.53;5084246;28;20209;-82
2022/12/02 01:52:16;;;;;;;110.00;32.03;;;;;;;1.13;100.00;101889.53;5084253;28;20297;-82
2022/12/02 01:54:43;;;;;;;111.40;31.63;;;;;;;1.10;100.00;101885.16;5087647;28;20862;-84
2022/12/02 01:57:12;;;;;;;122.27;33.93;;;;;;;1.11;100.00;101896.53;5080238;28;20660;-83
2022/12/02 01:59:41;;;;;;;113.10;34.53;;;;;;;1.08;100.00;101892.16;5085739;28;20230;-83
2022/12/02 02:02:24;;;;;;;102.87;31.60;;;;;;;1.06;100.00;101880.84;5087094;28;20228;-82
2022/12/02 02:04:51;;;;;;;103.20;32.50;;;;;;;1.06;100.00;101887.84;5084918;28;20232;-79
2022/12/02 02:07:18;;;;;;;109.40;32.50;;;;;;;1.05;100.00;101881.72;5086506;28;20791;-83
2022/12/02 02:09:44;;;;;;;107.33;31.80;;;;;;;1.04;100.00;101885.22;5081049;28;20200;-82
2022/12/02 02:12:11;;;;;;;105.40;31.83;;;;;;;1.02;100.00;101881.72;5088462;28;20211;-82
2022/12/02 02:14:37;;;;;;;95.93;29.70;;;;;;;1.01;100.00;101878.22;5087812;28;20243;-80
2022/12/02 02:17:06;;;;;;;96.03;30.73;;;;;;;1.00;100.00;101872.97;5085207;28;20228;-83
2022/12/02 02:19:32;;;;;;;99.43;29.83;;;;;;;0.98;100.00;101880.84;5086633;28;21628;-81
2022/12/02 02:22:03;;;;;;;90.60;28.10;;;;;;;0.97;100.00;101875.63;5085470;28;20650;-84
2022/12/02 02:24:31;;;;;;;91.73;29.87;;;;;;;0.96;100.00;101884.38;5079323;28;20228;-83
2022/12/02 02:26:57;;;;;;;91.77;28.53;;;;;;;0.94;100.00;101870.38;5080568;28;20200;-82
2022/12/02 02:29:24;;;;;;;93.63;32.40;;;;;;;0.92;100.00;101877.38;5086247;28;20208;-82
2022/12/02 02:31:50;;;;;;;94.17;30.57;;;;;;;0.89;100.00;101866.94;5082028;28;20211;-79
2022/12/02 02:34:17;;;;;;;100.20;30.40;;;;;;;0.87;100.00;101868.69;5083041;28;20235;-82
2022/12/02 02:36:43;;;;;;;83.57;29.20;;;;;;;0.85;100.00;101865.19;5079397;28;20566;-81
2022/12/02 02:39:10;;;;;;;102.07;32.67;;;;;;;0.82;100.00;101868.69;5084100;28;20961;-83
2022/12/02 02:41:38;;;;;;;91.77;31.77;;;;;;;0.80;100.00;101872.19;5082000;28;20219;-82
2022/12/02 02:44:05;;;;;;;89.67;30.80;;;;;;;0.77;100.00;101870.44;5084407;28;20622;-81
2022/12/02 02:46:32;;;;;;;97.70;31.50;;;;;;;0.75;100.00;101864.34;5079307;28;20699;-82
2022/12/02 02:48:58;;;;;;;97.27;30.97;;;;;;;0.72;100.00;101866.13;5082548;28;20204;-82
2022/12/02 02:51:25;;;;;;;94.63;32.07;;;;;;;0.72;100.00;101866.13;5088356;28;20232;-82
2022/12/02 02:53:51;;;;;;;96.43;32.80;;;;;;;0.71;100.00;101869.63;5089578;28;20703;-83
2022/12/02 02:56:18;;;;;;;105.50;33.60;;;;;;;0.71;100.00;101859.13;5086339;28;20571;-80
2022/12/02 02:58:46;;;;;;;98.83;31.10;;;;;;;0.68;100.00;101854.75;5089194;28;20224;-81
2022/12/02 03:01:16;;;;;;;110.77;33.20;;;;;;;0.68;100.00;101850.41;5083735;28;20215;-82
2022/12/02 03:03:45;;;;;;;104.70;32.60;;;;;;;0.67;100.00;101848.66;5084776;28;20197;-81
2022/12/02 03:06:14;;;;;;;98.37;32.87;;;;;;;0.67;100.00;101853.91;5087044;28;20211;-83
2022/12/02 03:08:44;;;;;;;104.87;33.27;;;;;;;0.67;100.00;101847.78;5088528;28;20192;-81
2022/12/02 03:11:12;;;;;;;100.20;32.43;;;;;;;0.67;100.00;101845.16;5085316;28;20212;-80
2022/12/02 03:13:40;;;;;;;105.47;34.63;;;;;;;0.66;100.00;101846.03;5087808;28;20643;-82
2022/12/02 03:16:11;;;;;;;103.93;32.37;;;;;;;0.67;100.00;101842.53;5084525;28;20220;-82
2022/12/02 03:18:39;;;;;;;104.27;33.23;;;;;;;0.67;100.00;101845.16;5088865;28;20219;-80
2022/12/02 03:21:06;;;;;;;101.77;33.70;;;;;;;0.66;100.00;101835.53;5085431;28;20208;-81
2022/12/02 03:23:33;;;;;;;103.87;32.10;;;;;;;0.68;100.00;101846.91;5090524;28;20207;-83
2022/12/02 03:26:01;;;;;;;96.87;31.00;;;;;;;0.69;100.00;101846.91;5086676;28;20220;-80
2022/12/02 03:28:28;;;;;;;101.80;34.03;;;;;;;0.68;100.00;101847.78;5084603;28;20368;-82
2022/12/02 03:30:55;;;;;;;96.57;31.40;;;;;;;0.68;100.00;101845.16;5087825;28;20213;-81
2022/12/02 03:33:25;;;;;;;103.43;30.60;;;;;;;0.69;100.00;101843.41;5090336;28;20216;-83
2022/12/02 03:35:52;;;;;;;107.67;34.03;;;;;;;0.69;100.00;101846.03;5087768;28;20664;-80
2022/12/02 03:38:18;;;;;;;96.73;31.83;;;;;;;0.70;100.00;101832.03;5087947;28;20228;-80
2022/12/02 03:40:46;;;;;;;95.67;32.87;;;;;;;0.68;100.00;101834.66;5086581;28;20641;-82
2022/12/02 03:43:13;;;;;;;91.40;30.53;;;;;;;0.69;100.00;101836.41;5087006;28;20803;-82
2022/12/02 03:45:41;;;;;;;86.47;31.57;;;;;;;0.68;100.00;101829.41;5086912;28;20699;-82
2022/12/02 03:48:09;;;;;;;90.93;29.63;;;;;;;0.67;100.00;101832.91;5087503;28;20249;-82
2022/12/02 03:50:37;;;;;;;97.47;32.83;;;;;;;0.67;100.00;101830.31;5083622;28;20196;-80
2022/12/02 03:53:04;;;;;;;97.50;32.07;;;;;;;0.69;100.00;101830.28;5086001;28;20205;-82
2022/12/02 03:55:31;;;;;;;105.70;30.70;;;;;;;0.68;100.00;101825.94;5083782;28;20587;-82
2022/12/02 03:58:04;;;;;;;91.40;31.63;;;;;;;0.67;100.00;101821.56;5080701;28;20220;-80
2022/12/02 04:00:31;;;;;;;93.00;31.70;;;;;;;0.66;100.00;101820.69;5084199;28;20197;-83
2022/12/02 04:02:57;;;;;;;91.27;29.80;;;;;;;0.65;100.00;101813.69;5085364;28;20580;-80
2022/12/02 04:05:24;;;;;;;92.67;31.47;;;;;;;0.65;100.00;101811.06;5086274;28;20235;-83
2022/12/02 04:07:52;;;;;;;88.07;29.43;;;;;;;0.67;100.00;101818.94;5092486;28;20620;-81
2022/12/02 04:10:18;;;;;;;89.10;30.30;;;;;;;0.65;100.00;101808.47;5089405;28;20213;-80
2022/12/02 04:12:45;;;;;;;99.67;33.20;;;;;;;0.67;100.00;101821.56;5085690;28;20211;-81
2022/12/02 04:15:11;;;;;;;98.17;32.30;;;;;;;0.68;100.00;101812.81;5083931;28;20224;-81
2022/12/02 04:17:38;;;;;;;94.80;32.83;;;;;;;0.68;100.00;101808.44;5093860;28;20589;-82
2022/12/02 04:20:06;;;;;;;90.63;31.27;;;;;;;0.70;100.00;101811.06;5094271;28;20205;-82
2022/12/02 04:22:33;;;;;;;86.90;31.37;;;;;;;0.70;100.00;101811.06;5086480;28;20205;-83
2022/12/02 04:25:02;;;;;;;93.17;32.33;;;;;;;0.71;100.00;101809.31;5091843;28;20228;-82
2022/12/02 04:27:29;;;;;;;91.70;31.27;;;;;;;0.72;100.00;101808.44;5092401;28;20197;-82
2022/12/02 04:29:55;;;;;;;84.60;30.73;;;;;;;0.74;100.00;101796.16;5092449;28;20678;-83
2022/12/02 04:32:22;;;;;;;91.47;32.50;;;;;;;0.73;100.00;101797.03;5088525;28;20200;-81
2022/12/02 04:34:48;;;;;;;79.03;28.10;;;;;;;0.73;100.00;101804.91;5091040;28;20220;-83
2022/12/02 04:37:15;;;;;;;87.47;31.13;;;;;;;0.73;100.00;101799.66;5088841;28;20208;-83
2022/12/02 04:39:41;;;;;;;80.83;28.87;;;;;;;0.72;100.00;101795.31;5094981;28;20216;-81
2022/12/02 04:42:09;;;;;;;85.77;28.83;;;;;;;0.71;100.00;101788.34;5089024;28;20204;-82
2022/12/02 04:44:35;;;;;;;93.47;30.70;;;;;;;0.70;100.00;101795.34;5088307;28;20690;-81
2022/12/02 04:47:02;;;;;;;91.27;31.30;;;;;;;0.70;100.00;101790.09;5089338;28;20200;-82
2022/12/02 04:49:28;;;;;;;91.47;31.67;;;;;;;0.69;100.00;101793.59;5086138;28;20207;-83
2022/12/02 04:51:55;;;;;;;91.80;32.57;;;;;;;0.72;100.00;101790.09;5086870;28;20204;-83
2022/12/02 04:54:21;;;;;;;81.20;29.17;;;;;;;0.68;100.00;101787.47;5084464;28;20729;-79
2022/12/02 04:56:48;;;;;;;93.90;30.77;;;;;;;0.69;100.00;101794.47;5087269;28;20201;-82
2022/12/02 04:59:15;;;;;;;86.73;29.60;;;;;;;0.69;100.00;101783.97;5082850;28;20220;-80
2022/12/02 05:01:42;;;;;;;88.87;31.20;;;;;;;0.69;100.00;101783.97;5083498;28;20648;-81
2022/12/02 05:04:08;;;;;;;81.30;30.60;;;;;;;0.69;100.00;101781.34;5092059;28;20228;-82
2022/12/02 05:06:35;;;;;;;90.00;30.13;;;;;;;0.71;100.00;101777.84;5081831;28;20204;-81
2022/12/02 05:09:01;;;;;;;95.17;32.03;;;;;;;0.71;100.00;101786.59;5085520;28;20208;-82
2022/12/02 05:11:28;;;;;;;78.67;29.83;;;;;;;0.71;100.00;101783.09;5086769;28;20212;-82
2022/12/02 05:13:54;;;;;;;85.87;30.37;;;;;;;0.68;100.00;101787.47;5086238;28;20212;-82
2022/12/02 05:16:22;;;;;;;87.40;31.83;;;;;;;0.67;100.00;101783.09;5086714;28;20205;-82
2022/12/02 05:18:48;;;;;;;85.97;31.77;;;;;;;0.68;100.00;101777.00;5082013;28;20849;-83
2022/12/02 05:21:15;;;;;;;86.27;29.93;;;;;;;0.67;100.00;101780.47;5081129;28;20201;-84
2022/12/02 05:23:41;;;;;;;84.77;30.17;;;;;;;0.67;100.00;101783.09;5086824;28;20239;-80
2022/12/02 05:26:08;;;;;;;79.13;31.20;;;;;;;0.69;100.00;101785.72;5087458;28;20204;-81
2022/12/02 05:28:34;;;;;;;81.80;29.97;;;;;;;0.69;100.00;101783.97;5084655;28;20201;-83
2022/12/02 05:31:01;;;;;;;82.00;27.20;;;;;;;0.70;100.00;101784.84;5082486;28;20213;-81
2022/12/02 05:33:29;;;;;;;83.20;29.20;;;;;;;0.69;100.00;101783.09;5085660;28;20209;-85
2022/12/02 05:35:55;;;;;;;74.77;28.37;;;;;;;0.69;100.00;101783.97;5084033;28;20224;-84
2022/12/02 05:38:21;;;;;;;76.20;27.93;;;;;;;0.67;100.00;101785.72;5082932;28;20225;-82
2022/12/02 05:40:48;;;;;;;76.53;28.23;;;;;;;0.66;100.00;101778.75;5082764;28;20574;-84
2022/12/02 05:43:18;;;;;;;74.30;27.40;;;;;;;0.65;100.00;101784.84;5083543;28;20304;-80
2022/12/02 05:45:45;;;;;;;78.00;28.90;;;;;;;0.67;100.00;101775.25;5084330;28;20225;-83
2022/12/02 05:48:12;;;;;;;75.30;27.90;;;;;;;0.65;100.00;101782.25;5089945;28;20200;-83
2022/12/02 05:50:41;;;;;;;79.07;29.70;;;;;;;0.64;100.00;101785.72;5087394;28;20705;-82
2022/12/02 05:53:10;;;;;;;73.30;28.07;;;;;;;0.65;100.00;101786.59;5080838;28;20208;-82
2022/12/02 05:55:37;;;;;;;84.10;30.60;;;;;;;0.67;100.00;101784.84;5077113;28;20232;-80
2022/12/02 05:58:07;;;;;;;69.53;27.03;;;;;;;0.65;100.00;101782.25;5086265;28;20239;-82
2022/12/02 06:00:33;;;;;;;73.87;26.87;;;;;;;0.67;100.00;101790.97;5080707;28;20212;-82
2022/12/02 06:03:04;;;;;;;79.97;27.37;;;;;;;0.67;100.00;101787.47;5082968;28;20209;-82
2022/12/02 06:05:36;;;;;;;79.10;27.73;;;;;;;0.66;100.00;101783.97;5083936;28;20637;-81
2022/12/02 06:08:15;;;;;;;81.07;28.57;;;;;;;0.67;100.00;101787.47;5085798;28;20200;-81
2022/12/02 06:10:43;;;;;;;72.57;26.53;;;;;;;0.67;100.00;101795.34;5092554;28;20246;-84
2022/12/02 06:13:16;;;;;;;67.23;26.77;;;;;;;0.66;100.00;101789.22;5086980;28;20209;-83
2022/12/02 06:15:43;;;;;;;75.13;27.67;;;;;;;0.67;100.00;101790.97;5089766;28;20231;-82
2022/12/02 06:18:17;;;;;;;76.23;27.23;;;;;;;0.66;100.00;101793.59;5084942;28;20228;-83
2022/12/02 06:20:45;;;;;;;66.20;27.07;;;;;;;0.67;100.00;101787.47;5087953;28;20200;-83
2022/12/02 06:23:16;;;;;;;69.93;27.50;;;;;;;0.67;100.00;101796.22;5082350;28;20205;-83
2022/12/02 06:25:44;;;;;;;68.47;24.83;;;;;;;0.68;100.00;101799.72;5082972;28;20221;-83
2022/12/02 06:28:20;;;;;;;71.07;27.63;;;;;;;0.64;100.00;101796.22;5083802;28;20212;-83
2022/12/02 06:30:47;;;;;;;64.87;25.50;;;;;;;0.62;100.00;101790.09;5083444;28;20211;-83
2022/12/02 06:33:24;;;;;;;65.70;27.03;;;;;;;0.60;100.00;101786.63;5081180;28;20349;-84
2022/12/02 06:35:52;;;;;;;70.53;26.30;;;;;;;0.61;100.00;101793.59;5086686;28;20229;-82
2022/12/02 06:38:29;;;;;;;70.33;26.93;;;;;;;0.62;100.00;101790.09;5089565;28;20609;-82
2022/12/02 06:40:57;;;;;;;60.90;26.63;;;;;;;0.62;100.00;101792.72;5087711;28;20199;-83
2022/12/02 06:43:27;;;;;;;61.70;25.40;;;;;;;0.63;100.00;101788.38;5090980;28;20215;-82
2022/12/02 06:45:54;;;;;;;61.30;24.50;;;;;;;0.64;100.00;101800.59;5090814;28;20231;-82
2022/12/02 06:48:27;;;;;;;71.87;26.87;;;;;;;0.64;100.00;101780.50;5090585;28;20211;-82
2022/12/02 06:50:56;;;;;;;62.60;25.43;;;;;;;0.63;100.00;101789.22;5080519;28;20208;-82
2022/12/02 06:53:32;;;;;;;64.37;25.60;;;;;;;0.64;100.00;101790.97;5087096;28;20208;-82
2022/12/02 06:56:05;;;;;;;65.17;25.77;;;;;;;0.66;100.00;101794.47;5080199;28;20233;-82
2022/12/02 06:58:39;;;;;;;66.90;26.30;;;;;;;0.67;100.00;101790.97;5085445;28;20219;-82
2022/12/02 07:01:15;;;;;;;63.97;24.87;;;;;;;0.68;100.00;101786.59;5091096;28;20239;-82
2022/12/02 07:03:46;;;;;;;58.67;24.30;;;;;;;0.67;100.00;101792.72;5090401;28;20196;-82
2022/12/02 07:06:15;;;;;;;68.73;26.77;;;;;;;0.66;100.00;101791.84;5090467;28;20651;-82
2022/12/02 07:08:43;;;;;;;59.57;23.53;;;;;;;0.67;100.00;101797.97;5090920;28;20204;-82
2022/12/02 07:11:20;;;;;;;61.30;24.43;;;;;;;0.65;100.00;101795.34;5090678;28;20204;-82
2022/12/02 07:13:48;;;;;;;61.83;24.33;;;;;;;0.65;100.00;101797.97;5090939;28;20760;-82
2022/12/02 07:16:34;;;;;;;57.03;25.10;;;;;;;0.67;100.00;101801.47;5091257;28;20588;-82
2022/12/02 07:19:01;;;;;;;59.97;24.27;;;;;;;0.66;100.00;101793.59;5086099;28;21035;-82
2022/12/02 07:21:27;;;;;;;60.93;24.60;;;;;;;0.67;100.00;101796.22;5085035;28;20570;-81
2022/12/02 07:23:56;;;;;;;65.73;25.23;;;;;;;0.67;100.00;101796.22;5083511;28;20200;-82
2022/12/02 07:26:23;;;;;;;58.50;25.13;;;;;;;0.68;100.00;101799.72;5086565;28;20208;-81
2022/12/02 07:28:50;;;;;;;62.33;26.50;;;;;;;0.67;100.00;101801.47;5081852;28;20294;-81
2022/12/02 07:31:21;;;;;;;57.63;24.57;;;;;;;0.67;100.00;101801.47;5085402;28;20627;-81
2022/12/02 07:33:47;;;;;;;60.47;23.63;;;;;;;0.68;100.00;101805.81;5085476;28;20196;-81
2022/12/02 07:36:14;;;;;;;62.93;24.10;;;;;;;0.69;100.00;101807.56;5086913;28;20205;-81
2022/12/02 07:38:40;;;;;;;61.57;25.23;;;;;;;0.70;100.00;101811.06;5087130;28;20232;-82
2022/12/02 07:41:08;;;;;;;61.53;23.80;;;;;;;0.71;100.00;101804.06;5087191;28;20215;-82
2022/12/02 07:43:35;;;;;;;53.80;22.47;;;;;;;0.71;100.00;101804.94;5081741;28;20699;-82
2022/12/02 07:46:01;;;;;;;60.27;24.57;;;;;;;0.73;100.00;101811.03;5086371;28;20685;-80
2022/12/02 07:48:28;;;;;;;57.03;24.20;;;;;;;0.73;100.00;101815.41;5084081;28;21926;-83
2022/12/02 07:50:54;;;;;;;60.73;24.40;;;;;;;0.72;100.00;101808.44;5084463;28;20243;-82
2022/12/02 07:53:20;;;;;;;54.73;22.10;;;;;;;0.72;100.00;101803.19;5089237;28;20231;-83
2022/12/02 07:55:47;;;;;;;53.80;22.53;;;;;;;0.73;100.00;101815.41;5086489;28;20220;-82
2022/12/02 07:58:15;;;;;;;53.23;22.77;;;;;;;0.71;100.00;101804.06;5087087;28;20608;-81
2022/12/02 08:00:41;;;;;;;54.43;22.83;;;;;;;0.71;100.00;101806.69;5091657;28;20215;-81
2022/12/02 08:03:08;;;;;;;55.17;23.40;;;;;;;0.68;100.00;101800.59;5091163;28;20200;-81
2022/12/02 08:05:34;;;;;;;56.73;23.07;;;;;;;0.72;100.00;101808.44;5091854;28;20227;-81
2022/12/02 08:08:01;;;;;;;53.13;21.70;;;;;;;0.69;100.00;101799.69;5095561;28;20219;-83
2022/12/02 08:10:54;;;;;;;57.43;23.93;;;;;;;0.68;100.00;101803.19;5095320;28;20196;-83
2022/12/02 08:13:22;;;;;;;58.23;22.93;;;;;;;0.68;100.00;101800.59;5087006;28;20212;-84
2022/12/02 08:15:49;;;;;;;58.07;25.20;;;;;;;0.71;100.00;101804.06;5094847;28;20486;-85
2022/12/02 08:18:18;;;;;;;55.07;22.43;;;;;;;0.71;100.00;101804.94;5096400;28;20270;-85
2022/12/02 08:20:44;;;;;;;59.10;24.23;;;;;;;0.73;100.00;101815.41;5089994;28;20196;-82
2022/12/02 08:23:11;;;;;;;57.00;22.70;;;;;;;0.72;100.00;101811.06;5091079;28;20209;-82
2022/12/02 08:25:37;;;;;;;54.57;23.47;;;;;;;0.73;100.00;101804.91;5089170;28;20224;-82
2022/12/02 08:28:04;;;;;;;58.33;24.30;;;;;;;0.72;100.00;101803.19;5087861;28;20197;-82
2022/12/02 08:30:31;;;;;;;63.47;24.30;;;;;;;0.73;100.00;101803.16;5087761;28;20204;-81
2022/12/02 08:32:58;;;;;;;57.17;23.73;;;;;;;0.76;100.00;101800.53;5088471;28;20766;-82
2022/12/02 08:35:24;;;;;;;55.70;23.40;;;;;;;0.75;100.00;101800.53;5089094;28;20670;-82
2022/12/02 08:37:51;;;;;;;59.20;24.27;;;;;;;0.75;100.00;101806.66;5085976;28;20204;-82
2022/12/02 08:40:17;;;;;;;57.90;24.03;;;;;;;0.76;100.00;101800.53;5086432;28;20418;-82
2022/12/02 08:42:44;;;;;;;52.17;21.33;;;;;;;0.79;100.00;101797.91;5089878;28;20232;-82
2022/12/02 08:45:11;;;;;;;66.97;24.83;;;;;;;0.80;100.00;101801.38;5085476;28;20756;-82
2022/12/02 08:47:39;;;;;;;68.93;25.10;;;;;;;0.78;100.00;101808.38;5091364;28;20199;-82
2022/12/02 08:50:07;;;;;;;64.33;25.80;;;;;;;0.79;100.00;101800.53;5089076;28;20208;-82
2022/12/02 08:52:33;;;;;;;61.33;26.27;;;;;;;0.80;100.00;101798.78;5088107;28;20207;-82
2022/12/02 08:55:03;;;;;;;64.43;25.97;;;;;;;0.81;100.00;101797.88;5095721;28;20243;-85
2022/12/02 08:57:29;;;;;;;61.73;25.27;;;;;;;0.83;100.00;101798.75;5101116;28;20231;-83
2022/12/02 08:59:56;;;;;;;62.10;25.03;;;;;;;0.81;100.00;101806.63;5098893;28;20239;-83
2022/12/02 09:02:22;;;;;;;61.30;24.03;;;;;;;0.80;100.00;101812.75;5099604;28;20204;-83
2022/12/02 09:04:50;;;;;;;59.50;24.37;;;;;;;0.80;100.00;101811.88;5097837;28;20487;-83
2022/12/02 09:07:17;;;;;;;59.43;25.00;;;;;;;0.80;100.00;101798.78;5097518;28;20204;-83
2022/12/02 09:09:45;;;;;;;66.03;25.27;;;;;;;0.81;100.00;101801.38;5093951;28;20201;-83
2022/12/02 09:12:11;;;;;;;66.60;25.47;;;;;;;0.82;100.00;101807.50;5092251;28;20200;-83
2022/12/02 09:14:38;;;;;;;62.30;25.43;;;;;;;0.82;100.00;101807.50;5095901;28;20230;-83
2022/12/02 09:17:04;;;;;;;63.87;25.30;;;;;;;0.83;100.00;101811.88;5097731;28;20208;-84
2022/12/02 09:19:31;;;;;;;63.77;25.93;;;;;;;0.85;100.00;101812.75;5098164;28;20228;-83
2022/12/02 09:21:59;;;;;;;63.80;25.23;;;;;;;0.85;100.00;101810.13;5095925;28;20204;-83
2022/12/02 09:24:25;;;;;;;60.00;24.90;;;;;;;0.86;100.00;101812.72;5099869;28;20221;-82
2022/12/02 09:26:52;;;;;;;59.90;23.47;;;;;;;0.87;100.00;101806.59;5100190;28;20588;-83
2022/12/02 09:29:18;;;;;;;60.93;23.33;;;;;;;0.89;100.00;101814.47;5097926;28;20203;-83
2022/12/02 09:31:44;;;;;;;58.43;23.03;;;;;;;0.91;100.00;101812.69;5096442;28;20208;-82
2022/12/02 09:34:11;;;;;;;54.50;23.23;;;;;;;0.92;100.00;101811.81;5094948;28;20231;-82
2022/12/02 09:36:37;;;;;;;62.23;25.13;;;;;;;0.93;100.00;101814.44;5095757;28;20196;-82
2022/12/02 09:39:05;;;;;;;57.10;23.90;;;;;;;0.97;100.00;101812.66;5097788;28;20228;-82
2022/12/02 09:41:32;;;;;;;59.27;24.23;;;;;;;0.99;100.00;101809.16;5096684;28;20228;-82
2022/12/02 09:43:59;;;;;;;49.03;22.17;;;;;;;1.01;100.00;101807.41;5094749;28;20681;-82
2022/12/02 09:46:25;;;;;;;51.50;22.37;;;;;;;1.02;100.00;101805.66;5097968;28;20204;-82
2022/12/02 09:48:52;;;;;;;51.30;21.80;;;;;;;1.02;100.00;101803.91;5096148;28;21464;-81
2022/12/02 09:51:22;;;;;;;53.57;22.87;;;;;;;1.03;100.00;101810.00;5098654;28;20224;-82
2022/12/02 09:53:48;;;;;;;53.60;23.07;;;;;;;1.04;100.00;101806.50;5098609;28;20213;-81
2022/12/02 09:56:19;;;;;;;47.00;20.83;;;;;;;1.06;100.00;101802.13;5095999;28;20226;-82
2022/12/02 09:58:46;;;;;;;52.97;22.80;;;;;;;1.06;100.00;101799.50;5098190;28;20196;-81
2022/12/02 10:01:14;;;;;;;51.60;21.77;;;;;;;1.07;100.00;101806.50;5097889;28;20200;-82
2022/12/02 10:03:42;;;;;;;55.87;23.20;;;;;;;1.09;100.00;101803.84;5095461;28;20685;-82
2022/12/02 10:06:16;;;;;;;54.37;23.27;;;;;;;1.11;100.00;101809.94;5093734;28;20216;-82
2022/12/02 10:08:43;;;;;;;54.03;22.27;;;;;;;1.13;100.00;101805.56;5096739;28;20212;-81
2022/12/02 10:11:17;;;;;;;50.17;21.60;;;;;;;1.15;100.00;101801.19;5096693;28;20196;-83
2022/12/02 10:13:45;;;;;;;47.10;20.83;;;;;;;1.15;100.00;101798.56;5094561;28;20204;-82
2022/12/02 10:16:13;;;;;;;45.07;19.90;;;;;;;1.14;100.00;101804.69;5093228;28;20200;-82
2022/12/02 10:18:40;;;;;;;51.33;21.07;;;;;;;1.13;100.00;101801.19;5092289;28;20673;-82
2022/12/02 10:21:07;;;;;;;47.47;21.33;;;;;;;1.16;100.00;101800.31;5091938;28;20231;-82
2022/12/02 10:23:51;;;;;;;47.10;21.30;;;;;;;1.16;100.00;101793.31;5091748;28;20215;-82
2022/12/02 10:26:17;;;;;;;46.70;20.00;;;;;;;1.16;100.00;101801.19;5090773;28;20212;-82
2022/12/02 10:29:00;;;;;;;39.73;20.07;;;;;;;1.17;100.00;101786.31;5095937;28;20219;-82
2022/12/02 10:31:27;;;;;;;44.90;20.13;;;;;;;1.19;100.00;101790.66;5097214;28;20192;-82
2022/12/02 10:33:56;;;;;;;51.37;21.23;;;;;;;1.21;100.00;101788.03;5099706;28;20200;-83
2022/12/02 10:36:30;;;;;;;45.03;20.70;;;;;;;1.22;100.00;101784.53;5098024;28;20200;-83
2022/12/02 10:39:17;;;;;;;42.90;21.33;;;;;;;1.23;100.00;101783.66;5098014;28;20196;-83
2022/12/02 10:41:44;;;;;;;42.77;20.60;;;;;;;1.23;100.00;101786.28;5097668;28;20263;-83
2022/12/02 10:44:15;;;;;;;49.53;21.30;;;;;;;1.22;100.00;101785.41;5095995;28;20220;-83
2022/12/02 10:46:42;;;;;;;42.93;20.07;;;;;;;1.23;100.00;101786.28;5092497;28;20196;-83
2022/12/02 10:49:28;;;;;;;43.67;21.03;;;;;;;1.22;100.00;101780.16;5091663;28;20203;-82
2022/12/02 10:51:58;;;;;;;44.53;20.77;;;;;;;1.23;100.00;101781.91;5091121;28;20645;-82
2022/12/02 10:54:28;;;;;;;49.63;22.17;;;;;;;1.23;100.00;101781.91;5095354;28;20239;-83
2022/12/02 10:56:55;;;;;;;47.57;20.67;;;;;;;1.24;100.00;101778.41;5096257;28;20202;-82
2022/12/02 10:59:24;;;;;;;41.53;21.17;;;;;;;1.27;100.00;101791.47;5096736;28;20222;-83
2022/12/02 11:01:51;;;;;;;46.07;21.17;;;;;;;1.25;100.00;101772.28;5093140;28;20574;-82
2022/12/02 11:04:17;;;;;;;51.60;23.30;;;;;;;1.27;99.98;101773.09;5096999;28;20622;-82
2022/12/02 11:06:44;;;;;;;47.53;22.30;;;;;;;1.28;99.41;101771.34;5097677;28;20662;-83
2022/12/02 11:09:16;;;;;;;49.83;23.53;;;;;;;1.29;99.55;101771.34;5099559;28;20666;-83
2022/12/02 11:11:42;;;;;;;47.90;22.50;;;;;;;1.32;99.53;101773.09;5100879;28;20201;-83
2022/12/02 11:14:12;;;;;;;48.40;21.77;;;;;;;1.32;99.20;101771.31;5102387;28;20220;-83
2022/12/02 11:16:46;;;;;;;46.57;21.00;;;;;;;1.34;98.85;101768.69;5104548;28;20204;-83